Time;durP1;ratioP1;P1;durP2;ratioP2;P2;SDS_P1;SDS_P2;PMS_P1;PMS_P2;Temp;Humidity;BMP_temperature;BMP_pressure;BME280_temperature;BME280_humidity;BME280_pressure;Samples;Min_cycle;Max_cycle;Signal;HPM_P1;HPM_P2
2023/06/18 00:00:12;;;;;;;1999.90;999.90;;;;;;;33.33;28.08;101406.56;5050110;28;20159;-65
2023/06/18 00:02:37;;;;;;;1999.90;999.90;;;;;;;33.40;27.79;101391.41;5049895;28;20026;-65
2023/06/18 00:05:03;;;;;;;1999.90;999.90;;;;;;;33.03;28.39;101408.53;5032600;28;20392;-65
2023/06/18 00:07:29;;;;;;;1999.90;999.90;;;;;;;33.04;28.43;101404.81;5031779;28;20032;-65
2023/06/18 00:09:54;;;;;;;1999.90;999.90;;;;;;;33.01;28.49;101399.72;5032024;28;20210;-65
2023/06/18 00:12:19;;;;;;;1999.90;999.90;;;;;;;32.98;27.76;101399.00;5032358;28;20029;-65
2023/06/18 00:14:45;;;;;;;1999.90;999.90;;;;;;;33.06;28.25;101394.72;5049114;28;20029;-65
2023/06/18 00:17:11;;;;;;;1999.90;999.90;;;;;;;32.93;27.40;101387.78;5050285;28;20032;-65
2023/06/18 00:19:36;;;;;;;1999.90;999.90;;;;;;;33.05;27.82;101387.59;5031923;28;20052;-65
2023/06/18 00:22:02;;;;;;;1999.90;999.90;;;;;;;32.79;27.61;101380.13;5049411;28;20052;-65
2023/06/18 00:24:27;;;;;;;1999.90;999.90;;;;;;;32.72;27.94;101379.03;5032420;28;20059;-65
2023/06/18 00:26:53;;;;;;;1999.90;999.90;;;;;;;32.87;27.39;101376.69;5049652;28;20070;-65
2023/06/18 00:29:18;;;;;;;1999.90;999.90;;;;;;;32.74;27.85;101382.44;5031598;28;20618;-65
2023/06/18 00:31:43;;;;;;;1999.90;999.90;;;;;;;32.90;27.53;101382.66;5031415;28;20699;-65
2023/06/18 00:34:09;;;;;;;1999.90;999.90;;;;;;;32.59;28.46;101382.88;5032260;28;20028;-65
2023/06/18 00:36:38;;;;;;;1999.90;999.90;;;;;;;32.74;28.31;101379.72;5031592;28;20137;-65
2023/06/18 00:39:04;;;;;;;1999.90;999.90;;;;;;;32.65;27.78;101385.00;5050132;28;20434;-65
2023/06/18 00:41:30;;;;;;;1999.90;999.90;;;;;;;32.73;28.36;101380.75;5031885;28;20090;-65
2023/06/18 00:43:57;;;;;;;1999.90;999.90;;;;;;;32.94;27.63;101373.22;5048673;28;20025;-65
2023/06/18 00:46:26;;;;;;;1999.90;999.90;;;;;;;32.93;26.95;101376.97;5031849;28;20883;-64
2023/06/18 00:48:53;;;;;;;1999.90;999.90;;;;;;;32.56;28.14;101375.06;5049198;28;20039;-66
2023/06/18 00:51:21;;;;;;;1999.90;999.90;;;;;;;32.86;27.94;101375.84;5049252;28;20033;-64
2023/06/18 00:53:46;;;;;;;1999.90;999.90;;;;;;;32.49;28.63;101379.34;5031247;28;20484;-65
2023/06/18 00:56:12;;;;;;;1999.90;999.90;;;;;;;32.40;29.27;101381.06;5030921;28;20091;-65
2023/06/18 00:58:38;;;;;;;1999.90;999.90;;;;;;;32.47;29.09;101375.94;5031336;28;20013;-65
2023/06/18 01:01:10;;;;;;;1999.90;999.90;;;;;;;32.56;28.61;101377.78;5031428;28;20033;-65
2023/06/18 01:03:36;;;;;;;1999.90;999.90;;;;;;;32.01;29.69;101374.81;5048192;28;20051;-64
2023/06/18 01:06:02;;;;;;;1999.90;999.90;;;;;;;32.06;29.77;101375.25;5031707;28;20029;-65
2023/06/18 01:08:32;;;;;;;1999.90;999.90;;;;;;;32.20;29.57;101369.44;5049474;28;20087;-65
2023/06/18 01:11:04;;;;;;;1999.90;999.90;;;;;;;32.54;28.42;101355.41;5030394;28;20029;-66
2023/06/18 01:13:33;;;;;;;1999.90;999.90;;;;;;;32.54;28.49;101354.56;5049405;28;20025;-65
2023/06/18 01:16:05;;;;;;;1999.90;999.90;;;;;;;32.24;28.74;101354.63;5030980;28;20398;-65
2023/06/18 01:18:39;;;;;;;1999.90;999.90;;;;;;;32.74;27.93;101350.81;5030946;28;20380;-64
2023/06/18 01:21:09;;;;;;;1999.90;999.90;;;;;;;32.58;28.09;101346.00;5031439;28;20025;-63
2023/06/18 01:24:11;;;;;;;1999.90;999.90;;;;;;;32.28;28.64;101356.03;5049307;28;20111;-64
2023/06/18 01:26:38;;;;;;;1999.90;999.90;;;;;;;31.85;28.13;101353.75;5031010;28;20021;-64
2023/06/18 01:29:09;;;;;;;1999.90;999.90;;;;;;;31.35;28.98;101346.59;5049174;28;20461;-63
2023/06/18 01:31:36;;;;;;;1999.90;999.90;;;;;;;31.47;29.01;101346.31;5030511;28;20029;-63
2023/06/18 01:34:03;;;;;;;1999.90;999.90;;;;;;;31.66;28.24;101346.53;5031336;28;20029;-64
2023/06/18 01:36:40;;;;;;;1999.90;999.90;;;;;;;31.48;28.34;101341.78;5031408;28;20025;-64
2023/06/18 01:39:39;;;;;;;1999.90;999.90;;;;;;;31.22;28.45;101336.06;5030883;28;20017;-64
2023/06/18 01:42:15;;;;;;;1999.90;999.90;;;;;;;31.47;29.23;101340.06;5031059;28;20123;-64
2023/06/18 01:44:44;;;;;;;1999.90;999.90;;;;;;;31.35;28.83;101341.19;5048642;28;20044;-64
2023/06/18 01:47:12;;;;;;;1999.90;999.90;;;;;;;30.93;29.17;101331.41;5030471;28;20341;-64
2023/06/18 01:49:40;;;;;;;1999.90;999.90;;;;;;;31.06;29.49;101336.56;5030737;28;20017;-64
2023/06/18 01:52:08;;;;;;;1999.90;999.90;;;;;;;31.25;29.39;101336.63;5048881;28;20025;-64
2023/06/18 01:54:35;;;;;;;1999.90;999.90;;;;;;;31.40;29.11;101336.22;5030727;28;20425;-63
2023/06/18 01:57:01;;;;;;;1999.90;999.90;;;;;;;31.03;29.40;101328.75;5031048;28;20052;-64
2023/06/18 01:59:27;;;;;;;1999.90;999.90;;;;;;;30.94;29.34;101320.47;5030608;28;20025;-64
2023/06/18 02:01:53;;;;;;;1999.90;999.90;;;;;;;31.33;29.15;101316.19;5030569;28;20152;-64
2023/06/18 02:04:18;;;;;;;1999.90;999.90;;;;;;;31.10;29.26;101321.81;5030971;28;20132;-63
2023/06/18 02:06:45;;;;;;;1999.90;999.90;;;;;;;31.42;28.88;101318.03;5029983;28;20040;-64
2023/06/18 02:09:10;;;;;;;1999.90;999.90;;;;;;;31.38;28.87;101319.31;5031102;28;20025;-63
2023/06/18 02:11:35;;;;;;;1999.90;999.90;;;;;;;31.16;28.82;101315.88;5048700;28;20086;-64
2023/06/18 02:14:01;;;;;;;1999.90;999.90;;;;;;;30.92;29.62;101308.94;5032833;28;20025;-64
2023/06/18 02:16:26;;;;;;;1999.90;999.90;;;;;;;31.03;29.46;101312.56;5034937;28;20033;-64
2023/06/18 02:18:51;;;;;;;1999.90;999.90;;;;;;;30.27;30.45;101308.34;5034067;28;20025;-64
2023/06/18 02:21:17;;;;;;;1999.90;999.90;;;;;;;30.53;30.41;101303.41;5051988;28;20486;-64
2023/06/18 02:23:42;;;;;;;1999.90;999.90;;;;;;;30.67;30.04;101304.03;5051993;28;20119;-63
2023/06/18 02:26:08;;;;;;;1999.90;999.90;;;;;;;30.80;30.03;101299.25;5034446;28;20036;-64
2023/06/18 02:28:35;;;;;;;1999.90;999.90;;;;;;;30.64;30.45;101299.75;5033660;28;20262;-64
2023/06/18 02:31:01;;;;;;;1999.90;999.90;;;;;;;30.29;30.39;101293.75;5034590;28;20112;-64
2023/06/18 02:33:27;;;;;;;1999.90;999.90;;;;;;;30.75;30.19;101301.53;5034424;28;20077;-64
2023/06/18 02:35:52;;;;;;;1999.90;999.90;;;;;;;30.76;30.13;101298.69;5033409;28;20028;-64
2023/06/18 02:38:18;;;;;;;1999.90;999.90;;;;;;;30.49;30.58;101304.66;5034529;28;20086;-64
2023/06/18 02:40:43;;;;;;;1999.90;999.90;;;;;;;30.36;30.98;101298.59;5033409;28;20021;-64
2023/06/18 02:43:08;;;;;;;1999.90;999.90;;;;;;;30.39;30.96;101301.00;5033529;28;20029;-63
2023/06/18 02:45:37;;;;;;;1999.90;999.90;;;;;;;30.55;30.48;101301.41;5034282;28;20033;-63
2023/06/18 02:48:02;;;;;;;1999.90;999.90;;;;;;;30.70;30.77;101298.38;5033927;28;20064;-64
2023/06/18 02:50:28;;;;;;;1999.90;999.90;;;;;;;30.68;30.69;101303.03;5033370;28;20060;-64
2023/06/18 02:52:55;;;;;;;1999.90;999.90;;;;;;;30.86;30.49;101296.00;5033687;28;20025;-64
2023/06/18 02:55:20;;;;;;;1999.90;999.90;;;;;;;30.57;31.09;101304.84;5033885;28;20424;-64
2023/06/18 02:57:45;;;;;;;1999.90;999.90;;;;;;;30.79;30.50;101300.25;5032790;28;20032;-64
2023/06/18 03:00:12;;;;;;;1999.90;999.90;;;;;;;30.70;31.10;101301.06;5033679;28;20072;-64
2023/06/18 03:02:41;;;;;;;1999.90;999.90;;;;;;;30.77;31.39;101299.53;5032641;28;20466;-64
2023/06/18 03:05:07;;;;;;;1999.90;999.90;;;;;;;30.78;30.91;101295.84;5051845;28;20051;-64
2023/06/18 03:07:33;;;;;;;1999.90;999.90;;;;;;;30.75;30.97;101293.44;5033685;28;20133;-64
2023/06/18 03:09:58;;;;;;;1999.90;999.90;;;;;;;30.15;32.50;101299.47;5032567;28;20021;-63
2023/06/18 03:12:24;;;;;;;1999.90;999.90;;;;;;;30.46;31.66;101302.25;5033923;28;20033;-64
2023/06/18 03:14:50;;;;;;;1999.90;999.90;;;;;;;31.01;30.79;101306.41;5033019;28;20074;-64
2023/06/18 03:17:15;;;;;;;1999.90;999.90;;;;;;;31.02;31.11;101308.13;5033216;28;20386;-64
2023/06/18 03:19:41;;;;;;;1999.90;999.90;;;;;;;30.43;32.36;101303.31;5033159;28;20035;-65
2023/06/18 03:22:06;;;;;;;1999.90;999.90;;;;;;;30.72;31.70;101296.38;5033589;28;20033;-64
2023/06/18 03:24:32;;;;;;;1999.90;999.90;;;;;;;30.78;31.79;101303.94;5049607;28;20043;-65
2023/06/18 03:26:59;;;;;;;1999.90;999.90;;;;;;;30.38;32.52;101299.34;5032891;28;20020;-64
2023/06/18 03:29:25;;;;;;;1999.90;999.90;;;;;;;30.43;32.45;101297.06;5033441;28;20033;-65
2023/06/18 03:31:53;;;;;;;1999.90;999.90;;;;;;;30.56;31.87;101308.53;5032181;28;20033;-64
2023/06/18 03:34:20;;;;;;;1999.90;999.90;;;;;;;30.39;32.34;101309.97;5033092;28;20029;-64
2023/06/18 03:36:47;;;;;;;1999.90;999.90;;;;;;;30.25;32.97;101304.91;5032974;28;20029;-64
2023/06/18 03:39:14;;;;;;;1999.90;999.90;;;;;;;30.23;32.75;101307.75;5050962;28;20094;-64
2023/06/18 03:41:40;;;;;;;1999.90;999.90;;;;;;;30.51;32.45;101308.06;5032540;28;20079;-64
2023/06/18 03:44:06;;;;;;;1999.90;999.90;;;;;;;30.19;33.54;101300.91;5051098;28;20544;-64
2023/06/18 03:46:32;;;;;;;1999.90;999.90;;;;;;;30.19;33.31;101297.38;5050134;28;20029;-65
2023/06/18 03:48:57;;;;;;;1999.90;999.90;;;;;;;30.23;33.18;101296.97;5032182;28;20020;-64
2023/06/18 03:51:23;;;;;;;1999.90;999.90;;;;;;;30.14;33.23;101311.22;5032948;28;20344;-64
2023/06/18 03:53:50;;;;;;;1999.90;999.90;;;;;;;30.12;33.76;101315.91;5031519;28;20027;-64
2023/06/18 03:56:16;;;;;;;1999.90;999.90;;;;;;;30.51;33.31;101321.53;5063409;28;20040;-64
2023/06/18 03:58:43;;;;;;;1999.90;999.90;;;;;;;30.27;33.70;101309.19;5069967;28;20028;-64
2023/06/18 04:01:09;;;;;;;1999.90;999.90;;;;;;;30.24;33.98;101308.59;5051990;28;20124;-64
2023/06/18 04:03:37;;;;;;;1999.90;999.90;;;;;;;30.39;33.51;101311.81;5052441;28;20593;-63
2023/06/18 04:06:03;;;;;;;1999.90;999.90;;;;;;;30.74;33.21;101316.00;5069863;28;20028;-65
2023/06/18 04:08:28;;;;;;;1999.90;999.90;;;;;;;30.95;33.03;101314.09;5052355;28;20525;-65
2023/06/18 04:10:55;;;;;;;1999.90;999.90;;;;;;;30.92;32.83;101303.53;5052205;28;20309;-64
2023/06/18 04:13:20;;;;;;;1999.90;999.90;;;;;;;30.45;33.68;101306.75;5069730;28;20377;-64
2023/06/18 04:15:46;;;;;;;1999.90;999.90;;;;;;;30.84;32.80;101300.69;5069971;28;20027;-64
2023/06/18 04:18:11;;;;;;;1999.90;999.90;;;;;;;30.81;33.37;101306.34;5070250;28;20468;-65
2023/06/18 04:20:37;;;;;;;1999.90;999.90;;;;;;;31.02;32.91;101311.69;5050878;28;20472;-65
2023/06/18 04:23:03;;;;;;;1999.90;999.90;;;;;;;30.69;33.19;101315.53;5052474;28;20028;-65
2023/06/18 04:25:28;;;;;;;1999.90;999.90;;;;;;;30.75;33.33;101318.53;5051934;28;20017;-65
2023/06/18 04:27:55;;;;;;;1999.90;999.90;;;;;;;30.84;33.29;101311.47;5050853;28;20282;-65
2023/06/18 04:30:20;;;;;;;1999.90;999.90;;;;;;;30.83;33.33;101309.78;5070429;28;20047;-65
2023/06/18 04:32:45;;;;;;;1999.90;999.90;;;;;;;30.91;33.09;101309.06;5069557;28;20472;-65
2023/06/18 04:35:11;;;;;;;1999.90;999.90;;;;;;;30.78;33.51;101312.03;5069472;28;20027;-65
2023/06/18 04:37:36;;;;;;;1999.90;999.90;;;;;;;30.79;33.90;101309.19;5068368;28;20449;-65
2023/06/18 04:40:04;;;;;;;1999.90;999.90;;;;;;;31.17;32.96;101314.84;5070047;28;20028;-65
2023/06/18 04:42:29;;;;;;;1999.90;999.90;;;;;;;30.99;33.16;101311.09;5069219;28;20031;-65
2023/06/18 04:44:55;;;;;;;1999.90;999.90;;;;;;;31.68;32.36;101320.22;5051229;28;20463;-65
2023/06/18 04:47:20;;;;;;;1999.90;999.90;;;;;;;31.45;32.58;101321.31;5051820;28;20028;-64
2023/06/18 04:49:46;;;;;;;1999.90;999.90;;;;;;;31.83;32.21;101318.78;5050351;28;20479;-65
2023/06/18 04:52:12;;;;;;;1999.90;999.90;;;;;;;32.19;31.63;101312.81;5051846;28;20032;-65
2023/06/18 04:54:39;;;;;;;1999.90;999.90;;;;;;;32.23;32.00;101325.91;5069313;28;20396;-65
2023/06/18 04:57:04;;;;;;;1999.90;999.90;;;;;;;32.88;30.76;101327.84;5051172;28;20063;-74
2023/06/18 04:59:30;;;;;;;1999.90;999.90;;;;;;;32.40;31.30;101331.56;5053486;28;20020;-75
2023/06/18 05:01:55;;;;;;;1999.90;999.90;;;;;;;32.25;31.72;101328.44;5070880;28;20502;-73
2023/06/18 05:04:21;;;;;;;1999.90;999.90;;;;;;;32.45;31.37;101329.22;5052792;28;20032;-74
2023/06/18 05:06:46;;;;;;;1999.90;999.90;;;;;;;33.06;30.29;101329.75;5070684;28;20020;-73
2023/06/18 05:09:12;;;;;;;1999.90;999.90;;;;;;;33.69;29.56;101328.03;5052868;28;20033;-74
2023/06/18 05:11:37;;;;;;;1999.90;999.90;;;;;;;33.69;29.81;101334.31;5052887;28;20099;-72
2023/06/18 05:14:05;;;;;;;1999.90;999.90;;;;;;;33.45;29.94;101333.06;5053571;28;20123;-73
2023/06/18 05:16:31;;;;;;;1999.90;999.90;;;;;;;33.28;30.39;101326.63;5052691;28;20028;-73
2023/06/18 05:18:56;;;;;;;1999.90;999.90;;;;;;;33.75;29.76;101322.84;5052915;28;20043;-73
2023/06/18 05:21:21;;;;;;;1999.90;999.90;;;;;;;33.92;29.29;101323.88;5071061;28;20067;-73
2023/06/18 05:23:47;;;;;;;1999.90;999.90;;;;;;;32.89;30.65;101332.25;5052228;28;20028;-74
2023/06/18 05:26:13;;;;;;;1999.90;999.90;;;;;;;32.91;30.52;101324.81;5071114;28;20037;-73
2023/06/18 05:28:38;;;;;;;1999.90;999.90;;;;;;;33.05;30.50;101319.91;5053131;28;20024;-73
2023/06/18 05:31:03;;;;;;;1999.90;999.90;;;;;;;33.56;29.68;101315.72;5052939;28;20587;-73
2023/06/18 05:33:29;;;;;;;1999.90;999.90;;;;;;;33.44;29.84;101325.09;5070915;28;20025;-73
2023/06/18 05:35:54;;;;;;;1999.90;999.90;;;;;;;33.12;30.30;101318.28;5070477;28;20363;-72
2023/06/18 05:38:19;;;;;;;1999.90;999.90;;;;;;;32.93;30.27;101322.81;5070260;28;20027;-73
2023/06/18 05:40:45;;;;;;;1999.90;999.90;;;;;;;34.37;28.37;101326.59;5052826;28;20020;-73
2023/06/18 05:43:10;;;;;;;1999.90;999.90;;;;;;;33.52;29.30;101317.03;5071076;28;20028;-72
2023/06/18 05:45:37;;;;;;;1999.90;999.90;;;;;;;33.48;29.79;101321.06;5051984;28;20111;-74
2023/06/18 05:48:02;;;;;;;1999.90;999.90;;;;;;;33.25;29.85;101321.53;5071938;28;20078;-72
2023/06/18 05:50:27;;;;;;;1999.90;999.90;;;;;;;33.14;29.50;101324.41;5057119;28;20024;-72
2023/06/18 05:52:53;;;;;;;1999.90;999.90;;;;;;;33.50;29.46;101329.91;5055883;28;20078;-73
2023/06/18 05:55:18;;;;;;;1999.90;999.90;;;;;;;34.28;28.64;101337.34;5074293;28;20091;-72
2023/06/18 05:57:44;;;;;;;1999.90;999.90;;;;;;;34.52;28.52;101335.81;5074644;28;20016;-73
2023/06/18 06:00:11;;;;;;;1999.90;999.90;;;;;;;33.61;29.42;101348.63;5074011;28;20035;-73
2023/06/18 06:02:36;;;;;;;1999.90;999.90;;;;;;;31.49;32.13;101370.50;5074383;28;20486;-73
2023/06/18 06:05:02;;;;;;;1999.90;999.90;;;;;;;29.23;36.38;101416.50;5056500;28;20027;-73
2023/06/18 06:07:28;;;;;;;1999.90;999.90;;;;;;;29.92;35.88;101393.03;5073854;28;20047;-73
2023/06/18 06:09:55;;;;;;;1999.90;999.90;;;;;;;32.00;32.57;101362.31;5074099;28;20024;-73
2023/06/18 06:12:21;;;;;;;1999.90;999.90;;;;;;;32.24;31.65;101368.13;5056847;28;20024;-73
2023/06/18 06:14:47;;;;;;;1999.90;999.90;;;;;;;31.56;31.79;101387.84;5055134;28;20046;-73
2023/06/18 06:17:12;;;;;;;1999.90;999.90;;;;;;;32.51;31.23;101377.34;5056368;28;20118;-73
2023/06/18 06:19:38;;;;;;;1999.90;999.90;;;;;;;33.28;29.90;101364.53;5073026;28;20028;-73
2023/06/18 06:22:03;;;;;;;1999.90;999.90;;;;;;;32.29;29.43;101383.94;5056657;28;20388;-74
2023/06/18 06:24:28;;;;;;;1999.90;999.90;;;;;;;33.46;28.41;101366.44;5074833;28;20111;-73
2023/06/18 06:26:54;;;;;;;1999.90;999.90;;;;;;;33.38;29.11;101367.19;5072833;28;20032;-73
2023/06/18 06:29:20;;;;;;;1999.90;999.90;;;;;;;32.45;29.98;101361.69;5074030;28;20044;-73
2023/06/18 06:31:45;;;;;;;1999.90;999.90;;;;;;;33.65;28.66;101360.88;5055766;28;20024;-73
2023/06/18 06:34:11;;;;;;;1999.90;999.90;;;;;;;33.33;29.19;101358.66;5055315;28;20073;-73
2023/06/18 06:36:38;;;;;;;1999.90;999.90;;;;;;;33.02;30.47;101363.53;5055202;28;20032;-73
2023/06/18 06:39:04;;;;;;;1999.90;999.90;;;;;;;34.11;28.73;101359.94;5055907;28;20027;-73
2023/06/18 06:41:29;;;;;;;1999.90;999.90;;;;;;;34.15;28.71;101361.31;5054938;28;20032;-73
2023/06/18 06:43:55;;;;;;;1999.90;999.90;;;;;;;34.75;28.06;101355.13;5055159;28;20362;-73
2023/06/18 06:46:20;;;;;;;1999.90;999.90;;;;;;;35.11;27.34;101362.25;5055868;28;20396;-73
2023/06/18 06:48:45;;;;;;;1999.90;999.90;;;;;;;35.26;26.98;101363.31;5072428;28;20169;-74
2023/06/18 06:51:11;;;;;;;1999.90;999.90;;;;;;;35.07;26.71;101361.72;5073914;28;20028;-74
2023/06/18 06:53:36;;;;;;;1999.90;999.90;;;;;;;34.94;27.32;101356.75;5055319;28;20472;-74
2023/06/18 06:56:02;;;;;;;1999.90;999.90;;;;;;;35.17;27.32;101367.03;5072847;28;20060;-74
2023/06/18 06:58:27;;;;;;;1999.90;999.90;;;;;;;35.09;26.67;101364.28;5055625;28;20503;-74
2023/06/18 07:00:53;;;;;;;1999.90;999.90;;;;;;;35.00;26.60;101360.69;5072267;28;20029;-73
2023/06/18 07:03:19;;;;;;;1999.90;999.90;;;;;;;35.13;26.72;101360.22;5054523;28;20508;-74
2023/06/18 07:05:45;;;;;;;1999.90;999.90;;;;;;;35.45;26.83;101353.22;5054741;28;20062;-73
2023/06/18 07:08:10;;;;;;;1999.90;999.90;;;;;;;35.31;26.76;101355.56;5073545;28;20040;-74
2023/06/18 07:10:36;;;;;;;1999.90;999.90;;;;;;;35.62;26.43;101357.63;5054796;28;20389;-74
2023/06/18 07:13:02;;;;;;;1999.90;999.90;;;;;;;35.36;26.43;101356.94;5055353;28;20462;-73
2023/06/18 07:15:27;;;;;;;1999.90;999.90;;;;;;;34.31;26.55;101366.91;5055234;28;20025;-74
2023/06/18 07:17:53;;;;;;;1999.90;999.90;;;;;;;35.49;25.51;101371.72;5071920;28;20419;-74
2023/06/18 07:20:18;;;;;;;1999.90;999.90;;;;;;;35.11;26.09;101370.41;5055061;28;20068;-74
2023/06/18 07:22:44;;;;;;;1999.90;999.90;;;;;;;35.51;25.67;101377.00;5075008;28;20024;-73
2023/06/18 07:25:09;;;;;;;1999.90;999.90;;;;;;;35.35;25.90;101385.09;5076263;28;20019;-73
2023/06/18 07:27:37;;;;;;;1999.90;999.90;;;;;;;35.61;25.11;101385.00;5076303;28;20036;-73
2023/06/18 07:30:03;;;;;;;1999.90;999.90;;;;;;;35.38;25.71;101385.63;5075533;28;20024;-73
2023/06/18 07:32:29;;;;;;;1999.90;999.90;;;;;;;35.47;25.90;101379.19;5075488;28;20066;-73
2023/06/18 07:34:54;;;;;;;1999.90;999.90;;;;;;;35.82;25.84;101395.44;5074221;28;20379;-73
2023/06/18 07:37:20;;;;;;;1999.90;999.90;;;;;;;34.45;26.05;101384.44;5074599;28;20074;-72
2023/06/18 07:39:45;;;;;;;1999.90;999.90;;;;;;;35.38;25.17;101384.78;5091284;28;20115;-73
2023/06/18 07:42:11;;;;;;;1999.90;999.90;;;;;;;35.43;24.85;101379.69;5075039;28;20036;-73
2023/06/18 07:44:37;;;;;;;1999.90;999.90;;;;;;;35.07;25.08;101382.63;5090624;28;20023;-73
2023/06/18 07:47:02;;;;;;;1999.90;999.90;;;;;;;35.47;24.86;101372.91;5083253;28;20024;-73
2023/06/18 07:49:28;;;;;;;1999.90;999.90;;;;;;;35.71;24.44;101377.56;5059726;28;20066;-72
2023/06/18 07:51:54;;;;;;;1999.90;999.90;;;;;;;36.88;23.80;101385.47;5053336;28;20035;-74
2023/06/18 07:54:19;;;;;;;1999.90;999.90;;;;;;;37.07;23.61;101380.63;5072390;28;20031;-74
2023/06/18 07:56:45;;;;;;;1999.90;999.90;;;;;;;36.33;23.65;101387.13;5054057;28;20044;-74
2023/06/18 07:59:10;;;;;;;1999.90;999.90;;;;;;;37.08;23.36;101380.44;5054417;28;20012;-74
2023/06/18 08:01:35;;;;;;;1999.90;999.90;;;;;;;36.88;23.88;101377.31;5054464;28;20063;-73
2023/06/18 08:04:01;;;;;;;1999.90;999.90;;;;;;;36.08;23.50;101380.81;5054455;28;20027;-74
2023/06/18 08:06:26;;;;;;;1999.90;999.90;;;;;;;37.35;22.93;101379.13;5053984;28;20025;-73
2023/06/18 08:08:52;;;;;;;1999.90;999.90;;;;;;;37.18;22.47;101372.91;5054261;28;20450;-73
2023/06/18 08:11:17;;;;;;;1999.90;999.90;;;;;;;37.42;22.56;101367.53;5054453;28;20035;-74
2023/06/18 08:13:43;;;;;;;1999.90;999.90;;;;;;;37.48;22.94;101361.34;5071015;28;20024;-73
2023/06/18 08:16:09;;;;;;;1999.90;999.90;;;;;;;37.69;22.38;101369.72;5054162;28;20020;-73
2023/06/18 08:18:37;;;;;;;1999.90;999.90;;;;;;;37.40;22.79;101364.13;5053719;28;20039;-73
2023/06/18 08:21:02;;;;;;;1999.90;999.90;;;;;;;37.82;22.54;101363.66;5052992;28;20024;-74
2023/06/18 08:23:28;;;;;;;1999.90;999.90;;;;;;;37.36;22.27;101360.94;5054167;28;20031;-73
2023/06/18 08:25:54;;;;;;;1999.90;999.90;;;;;;;38.08;21.97;101358.88;5053634;28;20159;-73
2023/06/18 08:28:20;;;;;;;1999.90;999.90;;;;;;;37.88;22.70;101362.13;5053038;28;20035;-73
2023/06/18 08:30:45;;;;;;;1999.90;999.90;;;;;;;38.27;22.32;101355.63;5070827;28;20028;-73
2023/06/18 08:33:10;;;;;;;1999.90;999.90;;;;;;;37.84;22.20;101360.78;5053937;28;20032;-73
2023/06/18 08:35:39;;;;;;;1999.90;999.90;;;;;;;38.19;21.86;101355.69;5053938;28;20032;-74
2023/06/18 08:38:05;;;;;;;1999.90;999.90;;;;;;;38.49;21.60;101355.75;5072914;28;20021;-73
2023/06/18 08:40:37;;;;;;;1999.90;999.90;;;;;;;39.44;20.68;101355.94;5053119;28;20453;-73
2023/06/18 08:43:04;;;;;;;1999.90;999.90;;;;;;;39.25;20.90;101355.50;5054469;28;20035;-73
2023/06/18 08:45:30;;;;;;;1999.90;999.90;;;;;;;38.94;20.64;101348.41;5072223;28;20028;-73
2023/06/18 08:47:58;;;;;;;1999.90;999.90;;;;;;;38.31;22.30;101356.13;5053043;28;20032;-74
2023/06/18 08:50:27;;;;;;;1999.90;999.90;;;;;;;39.16;21.31;101343.88;5054515;28;20509;-74
2023/06/18 08:52:58;;;;;;;1999.90;999.90;;;;;;;38.39;21.32;101341.53;5053286;28;20112;-74
2023/06/18 08:55:25;;;;;;;1999.90;999.90;;;;;;;38.75;20.21;101343.53;5052427;28;20055;-74
2023/06/18 08:58:01;;;;;;;1999.90;999.90;;;;;;;39.21;20.05;101336.97;5070723;28;20073;-74
2023/06/18 09:00:27;;;;;;;1999.90;999.90;;;;;;;39.43;19.51;101348.75;5070958;28;20044;-74
2023/06/18 09:02:53;;;;;;;1999.90;999.90;;;;;;;39.43;19.65;101333.19;5052817;28;20492;-74
2023/06/18 09:05:19;;;;;;;1999.90;999.90;;;;;;;39.21;20.06;101346.00;5053366;28;20122;-74
2023/06/18 09:07:46;;;;;;;1999.90;999.90;;;;;;;39.53;19.74;101338.38;5052857;28;20147;-74
2023/06/18 09:10:12;;;;;;;1999.90;999.90;;;;;;;39.05;20.73;101347.06;5070129;28;20039;-75
2023/06/18 09:12:39;;;;;;;1999.90;999.90;;;;;;;39.95;20.29;101347.59;5052813;28;20055;-74
2023/06/18 09:15:05;;;;;;;1999.90;999.90;;;;;;;39.75;20.60;101346.56;5053095;28;20089;-74
2023/06/18 09:17:30;;;;;;;1999.90;999.90;;;;;;;39.33;20.56;101355.38;5070325;28;20539;-74
2023/06/18 09:19:57;;;;;;;1999.90;999.90;;;;;;;38.87;20.94;101344.75;5070399;28;20021;-74
2023/06/18 09:22:22;;;;;;;1999.90;999.90;;;;;;;37.38;21.84;101344.41;5070406;28;20546;-74
2023/06/18 09:24:55;;;;;;;1999.90;999.90;;;;;;;39.16;21.11;101343.03;5052652;28;20025;-74
2023/06/18 09:27:30;;;;;;;1999.90;999.90;;;;;;;37.96;21.40;101345.69;5053195;28;20021;-74
2023/06/18 09:29:55;;;;;;;1999.90;999.90;;;;;;;38.77;21.12;101349.66;5052137;28;20039;-74
2023/06/18 09:32:21;;;;;;;1999.90;999.90;;;;;;;36.99;22.13;101346.94;5053134;28;20020;-75
2023/06/18 09:34:46;;;;;;;1999.90;999.90;;;;;;;37.57;22.36;101341.19;5070601;28;20495;-74
2023/06/18 09:37:16;;;;;;;1999.90;999.90;;;;;;;38.07;21.74;101338.91;5070454;28;20036;-74
2023/06/18 09:39:42;;;;;;;1999.90;999.90;;;;;;;37.84;21.81;101338.97;5070576;28;20043;-74
2023/06/18 09:42:13;;;;;;;1999.90;999.90;;;;;;;38.44;21.52;101344.53;5053255;28;20387;-74
2023/06/18 09:44:43;;;;;;;1999.90;999.90;;;;;;;38.15;22.27;101338.81;5070452;28;20024;-74
2023/06/18 09:47:11;;;;;;;1999.90;999.90;;;;;;;37.76;22.43;101339.03;5053189;28;20056;-73
2023/06/18 09:49:37;;;;;;;1999.90;999.90;;;;;;;38.05;22.02;101334.69;5052437;28;20565;-73
2023/06/18 09:52:05;;;;;;;1999.90;999.90;;;;;;;38.68;21.72;101341.53;5070440;28;20098;-74
2023/06/18 09:54:42;;;;;;;1999.90;999.90;;;;;;;38.95;21.43;101336.44;5070848;28;20024;-74
2023/06/18 09:57:10;;;;;;;1999.90;999.90;;;;;;;38.80;22.05;101349.25;5070386;28;20082;-74
2023/06/18 09:59:36;;;;;;;1999.90;999.90;;;;;;;37.58;23.26;101340.16;5052187;28;20032;-75
2023/06/18 10:02:02;;;;;;;1999.90;999.90;;;;;;;38.55;22.83;101340.50;5052842;28;20020;-73
2023/06/18 10:04:28;;;;;;;1999.90;999.90;;;;;;;38.19;22.91;101344.78;5052803;28;20024;-74
2023/06/18 10:06:59;;;;;;;1999.90;999.90;;;;;;;38.24;22.80;101338.78;5069809;28;20059;-74
2023/06/18 10:09:32;;;;;;;1999.90;999.90;;;;;;;38.21;23.03;101339.13;5070485;28;20029;-74
2023/06/18 10:11:59;;;;;;;1999.90;999.90;;;;;;;37.73;23.74;101347.53;5051808;28;20147;-74
2023/06/18 10:14:28;;;;;;;1999.90;999.90;;;;;;;38.26;23.37;101348.47;5053084;28;20028;-73
2023/06/18 10:16:57;;;;;;;1999.90;999.90;;;;;;;38.32;22.85;101334.09;5052149;28;20021;-74
2023/06/18 10:19:27;;;;;;;1999.90;999.90;;;;;;;37.80;23.42;101343.94;5069477;28;20064;-74
2023/06/18 10:21:59;;;;;;;1999.90;999.90;;;;;;;37.68;23.71;101337.19;5070385;28;20032;-73
2023/06/18 10:24:39;;;;;;;1999.90;999.90;;;;;;;37.30;24.04;101331.66;5053064;28;20490;-73
2023/06/18 10:27:06;;;;;;;1999.90;999.90;;;;;;;37.95;23.80;101335.81;5052146;28;20050;-73
2023/06/18 10:29:33;;;;;;;1999.90;999.90;;;;;;;38.34;23.39;101323.81;5052670;28;20098;-73
2023/06/18 10:32:01;;;;;;;1999.90;999.90;;;;;;;37.98;23.75;101321.78;5052466;28;20058;-74
2023/06/18 10:34:27;;;;;;;1999.90;999.90;;;;;;;36.80;24.95;101315.56;5052022;28;20046;-74
2023/06/18 10:36:55;;;;;;;1999.90;999.90;;;;;;;36.47;25.08;101314.81;5055477;28;20543;-75
2023/06/18 10:39:21;;;;;;;1999.90;999.90;;;;;;;35.95;25.14;101316.91;5073908;28;20020;-74
2023/06/18 10:41:46;;;;;;;1999.90;999.90;;;;;;;38.00;23.55;101314.28;5072673;28;20491;-74
2023/06/18 10:44:12;;;;;;;1999.90;999.90;;;;;;;36.30;24.97;101317.53;5056562;28;20127;-74